sensor_id;sensor_type;location;lat;lon;timestamp;pressure;altitude;pressure_sealevel;temperature;humidity
23899;BME280;20544;50.018;20.010;2023-04-01T00:02:33;97041.91;;;11.19;100.00
23899;BME280;20544;50.018;20.010;2023-04-01T00:05:51;97044.20;;;11.15;100.00
23899;BME280;20544;50.018;20.010;2023-04-01T00:09:07;97051.33;;;11.15;100.00
23899;BME280;20544;50.018;20.010;2023-04-01T00:12:24;97048.33;;;11.11;100.00
23899;BME280;20544;50.018;20.010;2023-04-01T00:15:40;97037.70;;;10.99;100.00
23899;BME280;20544;50.018;20.010;2023-04-01T00:18:57;97038.63;;;11.05;100.00
23899;BME280;20544;50.018;20.010;2023-04-01T00:22:14;97035.06;;;11.11;100.00
23899;BME280;20544;50.018;20.010;2023-04-01T00:25:31;97026.63;;;11.03;100.00
23899;BME280;20544;50.018;20.010;2023-04-01T00:28:48;97021.31;;;11.03;100.00
23899;BME280;20544;50.018;20.010;2023-04-01T00:32:06;97022.22;;;10.96;100.00
23899;BME280;20544;50.018;20.010;2023-04-01T00:35:23;97021.54;;;10.89;100.00
23899;BME280;20544;50.018;20.010;2023-04-01T00:38:42;97007.92;;;10.86;100.00
23899;BME280;20544;50.018;20.010;2023-04-01T00:48:21;97013.22;;;10.86;100.00
23899;BME280;20544;50.018;20.010;2023-04-01T00:51:41;97008.47;;;10.76;100.00
23899;BME280;20544;50.018;20.010;2023-04-01T00:55:01;97006.53;;;10.83;100.00
23899;BME280;20544;50.018;20.010;2023-04-01T00:58:21;97010.77;;;10.84;100.00
23899;BME280;20544;50.018;20.010;2023-04-01T01:01:40;97007.80;;;10.80;100.00
23899;BME280;20544;50.018;20.010;2023-04-01T01:04:56;97008.10;;;10.72;100.00
23899;BME280;20544;50.018;20.010;2023-04-01T01:08:15;97014.08;;;10.67;100.00
23899;BME280;20544;50.018;20.010;2023-04-01T01:11:38;97007.51;;;10.70;100.00
23899;BME280;20544;50.018;20.010;2023-04-01T01:15:00;97010.63;;;10.67;100.00
23899;BME280;20544;50.018;20.010;2023-04-01T01:18:24;97018.45;;;10.62;100.00
23899;BME280;20544;50.018;20.010;2023-04-01T01:21:51;97020.05;;;10.63;100.00
23899;BME280;20544;50.018;20.010;2023-04-01T01:25:40;97015.80;;;10.62;100.00
23899;BME280;20544;50.018;20.010;2023-04-01T01:29:05;97028.36;;;10.66;100.00
23899;BME280;20544;50.018;20.010;2023-04-01T01:36:22;97021.30;;;10.60;100.00
23899;BME280;20544;50.018;20.010;2023-04-01T01:39:49;97019.91;;;10.58;100.00
23899;BME280;20544;50.018;20.010;2023-04-01T01:46:26;97026.47;;;10.55;100.00
23899;BME280;20544;50.018;20.010;2023-04-01T01:49:45;97036.41;;;10.60;100.00
23899;BME280;20544;50.018;20.010;2023-04-01T01:53:07;97041.48;;;10.61;100.00
23899;BME280;20544;50.018;20.010;2023-04-01T01:56:27;97033.50;;;10.49;100.00
23899;BME280;20544;50.018;20.010;2023-04-01T02:00:04;97031.21;;;10.53;100.00
23899;BME280;20544;50.018;20.010;2023-04-01T02:03:26;97041.25;;;10.63;100.00
23899;BME280;20544;50.018;20.010;2023-04-01T02:06:47;97040.22;;;10.64;100.00
23899;BME280;20544;50.018;20.010;2023-04-01T02:10:08;97037.67;;;10.57;100.00
23899;BME280;20544;50.018;20.010;2023-04-01T02:13:27;97041.35;;;10.56;100.00
23899;BME280;20544;50.018;20.010;2023-04-01T02:16:49;97043.77;;;10.58;100.00
23899;BME280;20544;50.018;20.010;2023-04-01T02:20:11;97046.16;;;10.47;100.00
23899;BME280;20544;50.018;20.010;2023-04-01T02:23:31;97048.37;;;10.50;100.00
23899;BME280;20544;50.018;20.010;2023-04-01T02:31:12;97043.06;;;10.50;100.00
23899;BME280;20544;50.018;20.010;2023-04-01T02:34:29;97044.88;;;10.31;100.00
23899;BME280;20544;50.018;20.010;2023-04-01T02:37:48;97051.44;;;10.29;100.00
23899;BME280;20544;50.018;20.010;2023-04-01T02:41:06;97058.73;;;10.33;100.00
23899;BME280;20544;50.018;20.010;2023-04-01T02:44:23;97059.61;;;10.27;100.00
23899;BME280;20544;50.018;20.010;2023-04-01T02:47:39;97058.22;;;10.25;100.00
23899;BME280;20544;50.018;20.010;2023-04-01T02:50:56;97061.44;;;10.27;100.00
23899;BME280;20544;50.018;20.010;2023-04-01T02:54:13;97058.36;;;10.30;100.00
23899;BME280;20544;50.018;20.010;2023-04-01T02:57:29;97065.52;;;10.29;100.00
23899;BME280;20544;50.018;20.010;2023-04-01T03:00:45;97056.31;;;10.32;100.00
23899;BME280;20544;50.018;20.010;2023-04-01T03:04:02;97067.11;;;10.30;100.00
23899;BME280;20544;50.018;20.010;2023-04-01T03:07:19;97064.45;;;10.30;100.00
23899;BME280;20544;50.018;20.010;2023-04-01T03:10:35;97063.20;;;10.33;100.00
23899;BME280;20544;50.018;20.010;2023-04-01T03:13:51;97059.52;;;10.34;100.00
23899;BME280;20544;50.018;20.010;2023-04-01T03:17:08;97063.80;;;10.35;100.00
23899;BME280;20544;50.018;20.010;2023-04-01T03:20:24;97067.80;;;10.26;100.00
23899;BME280;20544;50.018;20.010;2023-04-01T03:23:41;97050.87;;;10.08;100.00
23899;BME280;20544;50.018;20.010;2023-04-01T03:26:58;97054.60;;;10.19;100.00
23899;BME280;20544;50.018;20.010;2023-04-01T03:30:15;97058.08;;;10.19;100.00
23899;BME280;20544;50.018;20.010;2023-04-01T03:33:32;97056.45;;;10.18;100.00
23899;BME280;20544;50.018;20.010;2023-04-01T03:36:48;97060.27;;;10.23;100.00
23899;BME280;20544;50.018;20.010;2023-04-01T03:40:08;97055.63;;;10.18;100.00
23899;BME280;20544;50.018;20.010;2023-04-01T03:43:26;97058.50;;;10.16;100.00
23899;BME280;20544;50.018;20.010;2023-04-01T03:46:44;97055.71;;;10.11;100.00
23899;BME280;20544;50.018;20.010;2023-04-01T03:50:01;97062.48;;;10.07;100.00
23899;BME280;20544;50.018;20.010;2023-04-01T03:53:18;97063.43;;;10.13;100.00
23899;BME280;20544;50.018;20.010;2023-04-01T03:56:36;97060.92;;;10.18;100.00
23899;BME280;20544;50.018;20.010;2023-04-01T03:59:53;97066.22;;;10.18;100.00
23899;BME280;20544;50.018;20.010;2023-04-01T04:03:13;97075.14;;;10.24;100.00
23899;BME280;20544;50.018;20.010;2023-04-01T04:06:29;97073.09;;;10.26;100.00
23899;BME280;20544;50.018;20.010;2023-04-01T04:09:46;97073.74;;;10.21;100.00
23899;BME280;20544;50.018;20.010;2023-04-01T04:13:03;97078.59;;;10.24;100.00
23899;BME280;20544;50.018;20.010;2023-04-01T04:16:21;97075.42;;;10.15;100.00
23899;BME280;20544;50.018;20.010;2023-04-01T04:19:43;97088.39;;;10.24;100.00
23899;BME280;20544;50.018;20.010;2023-04-01T04:23:02;97089.41;;;10.23;100.00
23899;BME280;20544;50.018;20.010;2023-04-01T04:26:20;97085.14;;;10.22;100.00
23899;BME280;20544;50.018;20.010;2023-04-01T04:29:39;97082.86;;;10.25;100.00
23899;BME280;20544;50.018;20.010;2023-04-01T04:32:56;97092.20;;;10.28;100.00
23899;BME280;20544;50.018;20.010;2023-04-01T04:36:13;97084.86;;;10.30;100.00
23899;BME280;20544;50.018;20.010;2023-04-01T04:39:31;97076.11;;;10.29;100.00
23899;BME280;20544;50.018;20.010;2023-04-01T04:46:07;97084.63;;;10.31;100.00
23899;BME280;20544;50.018;20.010;2023-04-01T04:49:25;97084.60;;;10.38;100.00
23899;BME280;20544;50.018;20.010;2023-04-01T04:52:43;97090.47;;;10.40;100.00
23899;BME280;20544;50.018;20.010;2023-04-01T04:55:59;97087.25;;;10.38;100.00
23899;BME280;20544;50.018;20.010;2023-04-01T05:02:40;97090.70;;;10.39;100.00
23899;BME280;20544;50.018;20.010;2023-04-01T05:05:59;97084.74;;;10.43;100.00
23899;BME280;20544;50.018;20.010;2023-04-01T05:09:16;97092.69;;;10.43;100.00
23899;BME280;20544;50.018;20.010;2023-04-01T05:15:50;97091.44;;;10.46;100.00
23899;BME280;20544;50.018;20.010;2023-04-01T05:19:07;97093.06;;;10.47;100.00
23899;BME280;20544;50.018;20.010;2023-04-01T05:22:23;97090.61;;;10.45;100.00
23899;BME280;20544;50.018;20.010;2023-04-01T05:25:41;97097.53;;;10.46;100.00
23899;BME280;20544;50.018;20.010;2023-04-01T05:28:58;97096.08;;;10.50;100.00
23899;BME280;20544;50.018;20.010;2023-04-01T05:32:15;97098.36;;;10.47;100.00
23899;BME280;20544;50.018;20.010;2023-04-01T05:35:32;97094.09;;;10.46;100.00
23899;BME280;20544;50.018;20.010;2023-04-01T05:38:50;97090.04;;;10.43;100.00
23899;BME280;20544;50.018;20.010;2023-04-01T05:42:10;97095.54;;;10.42;100.00
23899;BME280;20544;50.018;20.010;2023-04-01T05:46:59;97092.88;;;10.60;100.00
23899;BME280;20544;50.018;20.010;2023-04-01T05:50:16;97092.16;;;10.72;100.00
23899;BME280;20544;50.018;20.010;2023-04-01T05:53:33;97092.28;;;10.77;100.00
23899;BME280;20544;50.018;20.010;2023-04-01T05:56:49;97093.75;;;10.73;100.00
23899;BME280;20544;50.018;20.010;2023-04-01T06:00:10;97083.73;;;10.75;100.00
23899;BME280;20544;50.018;20.010;2023-04-01T06:03:29;97090.30;;;10.72;100.00
23899;BME280;20544;50.018;20.010;2023-04-01T06:06:51;97093.38;;;10.69;100.00
23899;BME280;20544;50.018;20.010;2023-04-01T06:10:21;97090.16;;;10.67;100.00
23899;BME280;20544;50.018;20.010;2023-04-01T06:13:59;97079.98;;;10.64;100.00
23899;BME280;20544;50.018;20.010;2023-04-01T06:17:43;97080.72;;;10.71;100.00
23899;BME280;20544;50.018;20.010;2023-04-01T06:21:17;97082.44;;;10.65;100.00
23899;BME280;20544;50.018;20.010;2023-04-01T06:25:10;97086.16;;;10.76;100.00
23899;BME280;20544;50.018;20.010;2023-04-01T06:33:30;97097.36;;;10.78;100.00
23899;BME280;20544;50.018;20.010;2023-04-01T06:37:20;97096.36;;;10.91;100.00
23899;BME280;20544;50.018;20.010;2023-04-01T06:41:26;97092.73;;;11.04;100.00
23899;BME280;20544;50.018;20.010;2023-04-01T06:48:43;97102.45;;;11.10;100.00
23899;BME280;20544;50.018;20.010;2023-04-01T06:52:15;97106.38;;;11.20;100.00
23899;BME280;20544;50.018;20.010;2023-04-01T06:55:55;97108.13;;;11.26;100.00
23899;BME280;20544;50.018;20.010;2023-04-01T06:59:17;97100.41;;;11.36;100.00
23899;BME280;20544;50.018;20.010;2023-04-01T07:02:39;97098.83;;;11.47;100.00
23899;BME280;20544;50.018;20.010;2023-04-01T07:06:02;97098.95;;;11.52;100.00
23899;BME280;20544;50.018;20.010;2023-04-01T07:09:26;97106.00;;;11.58;100.00
23899;BME280;20544;50.018;20.010;2023-04-01T07:16:19;97105.20;;;11.58;100.00
23899;BME280;20544;50.018;20.010;2023-04-01T07:19:48;97101.28;;;11.60;100.00
23899;BME280;20544;50.018;20.010;2023-04-01T07:23:15;97107.63;;;11.59;100.00
23899;BME280;20544;50.018;20.010;2023-04-01T07:26:52;97098.16;;;11.63;100.00
23899;BME280;20544;50.018;20.010;2023-04-01T07:33:32;97104.88;;;11.78;100.00
23899;BME280;20544;50.018;20.010;2023-04-01T07:36:54;97102.45;;;11.76;100.00
23899;BME280;20544;50.018;20.010;2023-04-01T07:40:23;97107.28;;;11.79;100.00
23899;BME280;20544;50.018;20.010;2023-04-01T07:47:33;97108.67;;;11.82;100.00
23899;BME280;20544;50.018;20.010;2023-04-01T07:50:59;97104.86;;;11.90;100.00
23899;BME280;20544;50.018;20.010;2023-04-01T07:54:32;97119.31;;;11.94;100.00
23899;BME280;20544;50.018;20.010;2023-04-01T07:57:57;97113.31;;;11.98;100.00
23899;BME280;20544;50.018;20.010;2023-04-01T08:01:19;97114.80;;;11.94;100.00
23899;BME280;20544;50.018;20.010;2023-04-01T08:04:47;97117.04;;;11.97;100.00
23899;BME280;20544;50.018;20.010;2023-04-01T08:08:14;97120.13;;;11.83;100.00
23899;BME280;20544;50.018;20.010;2023-04-01T08:11:54;97119.70;;;11.97;100.00
23899;BME280;20544;50.018;20.010;2023-04-01T08:15:39;97117.36;;;12.01;100.00
23899;BME280;20544;50.018;20.010;2023-04-01T08:19:06;97124.30;;;12.02;100.00
23899;BME280;20544;50.018;20.010;2023-04-01T08:22:29;97128.08;;;11.94;100.00
23899;BME280;20544;50.018;20.010;2023-04-01T08:25:52;97122.35;;;11.97;100.00
23899;BME280;20544;50.018;20.010;2023-04-01T08:29:16;97131.45;;;12.13;100.00
23899;BME280;20544;50.018;20.010;2023-04-01T08:32:38;97129.14;;;12.17;100.00
23899;BME280;20544;50.018;20.010;2023-04-01T08:36:06;97132.36;;;12.31;100.00
23899;BME280;20544;50.018;20.010;2023-04-01T08:39:40;97132.94;;;12.33;100.00
23899;BME280;20544;50.018;20.010;2023-04-01T08:46:40;97123.55;;;12.54;100.00
23899;BME280;20544;50.018;20.010;2023-04-01T08:50:40;97115.21;;;12.62;100.00
23899;BME280;20544;50.018;20.010;2023-04-01T08:55:02;97120.88;;;12.66;100.00
23899;BME280;20544;50.018;20.010;2023-04-01T09:02:25;97119.34;;;12.70;100.00
23899;BME280;20544;50.018;20.010;2023-04-01T09:06:23;97122.58;;;13.30;100.00
23899;BME280;20544;50.018;20.010;2023-04-01T09:17:47;97115.70;;;15.03;100.00
23899;BME280;20544;50.018;20.010;2023-04-01T09:25:36;97129.69;;;14.88;100.00
23899;BME280;20544;50.018;20.010;2023-04-01T09:36:31;97133.41;;;14.65;100.00
23899;BME280;20544;50.018;20.010;2023-04-01T09:40:17;97131.95;;;14.57;100.00
23899;BME280;20544;50.018;20.010;2023-04-01T09:47:03;97130.28;;;14.51;100.00
23899;BME280;20544;50.018;20.010;2023-04-01T09:50:33;97134.41;;;14.42;100.00
23899;BME280;20544;50.018;20.010;2023-04-01T09:54:04;97131.95;;;14.18;100.00
23899;BME280;20544;50.018;20.010;2023-04-01T10:10:27;97150.26;;;13.92;100.00
23899;BME280;20544;50.018;20.010;2023-04-01T10:17:48;97153.23;;;13.33;100.00
23899;BME280;20544;50.018;20.010;2023-04-01T10:21:59;97155.84;;;13.16;100.00
23899;BME280;20544;50.018;20.010;2023-04-01T10:25:46;97156.46;;;13.06;100.00
23899;BME280;20544;50.018;20.010;2023-04-01T10:36:53;97165.60;;;12.69;100.00
23899;BME280;20544;50.018;20.010;2023-04-01T10:40:25;97161.80;;;12.65;100.00
23899;BME280;20544;50.018;20.010;2023-04-01T10:51:16;97168.00;;;12.83;100.00
23899;BME280;20544;50.018;20.010;2023-04-01T10:54:42;97165.44;;;12.88;100.00
23899;BME280;20544;50.018;20.010;2023-04-01T11:03:19;97159.17;;;12.94;100.00
23899;BME280;20544;50.018;20.010;2023-04-01T11:16:08;97156.34;;;13.13;100.00
23899;BME280;20544;50.018;20.010;2023-04-01T11:20:00;97157.23;;;13.18;100.00
23899;BME280;20544;50.018;20.010;2023-04-01T11:27:28;97159.09;;;13.18;100.00
23899;BME280;20544;50.018;20.010;2023-04-01T11:31:09;97155.30;;;13.14;100.00
23899;BME280;20544;50.018;20.010;2023-04-01T11:34:50;97149.02;;;13.20;100.00
23899;BME280;20544;50.018;20.010;2023-04-01T11:38:29;97149.98;;;13.42;100.00
23899;BME280;20544;50.018;20.010;2023-04-01T11:42:37;97149.59;;;13.68;100.00
23899;BME280;20544;50.018;20.010;2023-04-01T11:46:33;97149.36;;;14.03;100.00
23899;BME280;20544;50.018;20.010;2023-04-01T11:50:02;97151.77;;;14.05;100.00
23899;BME280;20544;50.018;20.010;2023-04-01T11:53:44;97158.41;;;14.02;100.00
23899;BME280;20544;50.018;20.010;2023-04-01T11:57:23;97159.94;;;13.81;100.00
23899;BME280;20544;50.018;20.010;2023-04-01T12:01:03;97161.45;;;13.60;100.00
23899;BME280;20544;50.018;20.010;2023-04-01T12:04:58;97164.22;;;13.36;100.00
23899;BME280;20544;50.018;20.010;2023-04-01T12:08:42;97168.63;;;13.31;100.00
23899;BME280;20544;50.018;20.010;2023-04-01T12:12:11;97164.91;;;13.43;100.00
23899;BME280;20544;50.018;20.010;2023-04-01T12:15:36;97169.28;;;13.50;100.00
23899;BME280;20544;50.018;20.010;2023-04-01T12:19:01;97166.70;;;13.72;100.00
23899;BME280;20544;50.018;20.010;2023-04-01T12:30:21;97175.75;;;13.88;100.00
23899;BME280;20544;50.018;20.010;2023-04-01T12:34:08;97171.73;;;13.68;100.00
23899;BME280;20544;50.018;20.010;2023-04-01T12:37:49;97176.50;;;13.83;100.00
23899;BME280;20544;50.018;20.010;2023-04-01T12:41:32;97171.64;;;13.80;100.00
23899;BME280;20544;50.018;20.010;2023-04-01T12:51:37;97165.59;;;13.85;100.00
23899;BME280;20544;50.018;20.010;2023-04-01T12:55:28;97176.39;;;13.78;100.00
23899;BME280;20544;50.018;20.010;2023-04-01T12:59:16;97173.16;;;13.59;100.00
23899;BME280;20544;50.018;20.010;2023-04-01T13:02:56;97181.39;;;13.57;100.00
23899;BME280;20544;50.018;20.010;2023-04-01T13:06:37;97183.31;;;13.33;100.00
23899;BME280;20544;50.018;20.010;2023-04-01T13:10:09;97185.39;;;13.43;100.00
23899;BME280;20544;50.018;20.010;2023-04-01T13:17:24;97186.72;;;13.29;100.00
23899;BME280;20544;50.018;20.010;2023-04-01T13:20:48;97197.82;;;13.37;100.00
23899;BME280;20544;50.018;20.010;2023-04-01T13:24:15;97192.50;;;13.25;100.00
23899;BME280;20544;50.018;20.010;2023-04-01T13:27:39;97186.93;;;13.27;100.00
23899;BME280;20544;50.018;20.010;2023-04-01T13:34:22;97215.49;;;13.03;100.00
23899;BME280;20544;50.018;20.010;2023-04-01T13:37:51;97198.73;;;13.02;100.00
23899;BME280;20544;50.018;20.010;2023-04-01T13:41:18;97208.30;;;13.03;100.00
23899;BME280;20544;50.018;20.010;2023-04-01T13:44:41;97205.83;;;12.85;100.00
23899;BME280;20544;50.018;20.010;2023-04-01T13:57:58;97223.66;;;12.60;100.00
23899;BME280;20544;50.018;20.010;2023-04-01T14:04:56;97212.33;;;12.53;100.00
23899;BME280;20544;50.018;20.010;2023-04-01T14:08:29;97203.42;;;12.59;100.00
23899;BME280;20544;50.018;20.010;2023-04-01T14:11:56;97201.70;;;12.65;100.00
23899;BME280;20544;50.018;20.010;2023-04-01T14:18:50;97207.84;;;12.54;100.00
23899;BME280;20544;50.018;20.010;2023-04-01T14:22:17;97208.64;;;12.54;100.00
23899;BME280;20544;50.018;20.010;2023-04-01T14:29:36;97207.13;;;12.58;100.00
23899;BME280;20544;50.018;20.010;2023-04-01T14:33:01;97210.02;;;12.69;100.00
23899;BME280;20544;50.018;20.010;2023-04-01T14:36:33;97210.23;;;12.67;100.00
23899;BME280;20544;50.018;20.010;2023-04-01T14:40:24;97215.47;;;12.50;100.00
23899;BME280;20544;50.018;20.010;2023-04-01T14:44:21;97211.08;;;12.44;100.00
23899;BME280;20544;50.018;20.010;2023-04-01T14:47:50;97213.84;;;12.49;100.00
23899;BME280;20544;50.018;20.010;2023-04-01T14:51:16;97220.89;;;12.43;100.00
23899;BME280;20544;50.018;20.010;2023-04-01T14:54:37;97216.17;;;12.34;100.00
23899;BME280;20544;50.018;20.010;2023-04-01T14:58:12;97217.44;;;12.43;100.00
23899;BME280;20544;50.018;20.010;2023-04-01T15:04:56;97223.34;;;12.45;100.00
23899;BME280;20544;50.018;20.010;2023-04-01T15:08:24;97219.39;;;12.36;100.00
23899;BME280;20544;50.018;20.010;2023-04-01T15:11:53;97223.69;;;12.49;100.00
23899;BME280;20544;50.018;20.010;2023-04-01T15:24:56;97230.61;;;12.38;100.00
23899;BME280;20544;50.018;20.010;2023-04-01T15:28:21;97234.98;;;12.32;100.00
23899;BME280;20544;50.018;20.010;2023-04-01T15:35:01;97239.84;;;12.23;100.00
23899;BME280;20544;50.018;20.010;2023-04-01T15:38:30;97252.89;;;12.25;100.00
23899;BME280;20544;50.018;20.010;2023-04-01T15:42:01;97255.91;;;12.28;100.00
23899;BME280;20544;50.018;20.010;2023-04-01T15:45:49;97264.23;;;12.20;100.00
23899;BME280;20544;50.018;20.010;2023-04-01T15:49:28;97264.47;;;12.19;100.00
23899;BME280;20544;50.018;20.010;2023-04-01T15:52:52;97268.00;;;12.01;100.00
23899;BME280;20544;50.018;20.010;2023-04-01T15:56:22;97268.36;;;12.04;100.00
23899;BME280;20544;50.018;20.010;2023-04-01T15:59:53;97269.16;;;12.05;100.00
23899;BME280;20544;50.018;20.010;2023-04-01T16:03:35;97278.34;;;11.90;100.00
23899;BME280;20544;50.018;20.010;2023-04-01T16:07:06;97276.72;;;11.89;100.00
23899;BME280;20544;50.018;20.010;2023-04-01T16:10:54;97275.92;;;11.89;100.00
23899;BME280;20544;50.018;20.010;2023-04-01T16:14:31;97286.86;;;11.80;100.00
23899;BME280;20544;50.018;20.010;2023-04-01T16:18:05;97291.55;;;11.67;100.00
23899;BME280;20544;50.018;20.010;2023-04-01T16:21:41;97296.50;;;11.63;100.00
23899;BME280;20544;50.018;20.010;2023-04-01T16:25:14;97292.48;;;11.72;100.00
23899;BME280;20544;50.018;20.010;2023-04-01T16:28:40;97305.76;;;11.72;100.00
23899;BME280;20544;50.018;20.010;2023-04-01T16:35:57;97308.15;;;11.62;100.00
23899;BME280;20544;50.018;20.010;2023-04-01T16:39:29;97297.03;;;11.53;100.00
23899;BME280;20544;50.018;20.010;2023-04-01T16:42:52;97302.06;;;11.43;100.00
23899;BME280;20544;50.018;20.010;2023-04-01T16:49:27;97320.14;;;11.34;100.00
23899;BME280;20544;50.018;20.010;2023-04-01T16:56:27;97328.47;;;11.38;100.00
23899;BME280;20544;50.018;20.010;2023-04-01T16:59:53;97344.22;;;11.32;100.00
23899;BME280;20544;50.018;20.010;2023-04-01T17:03:15;97343.42;;;11.32;100.00
23899;BME280;20544;50.018;20.010;2023-04-01T17:06:39;97344.69;;;11.29;100.00
23899;BME280;20544;50.018;20.010;2023-04-01T17:14:02;97350.20;;;11.09;100.00
23899;BME280;20544;50.018;20.010;2023-04-01T17:17:28;97352.71;;;11.04;100.00
23899;BME280;20544;50.018;20.010;2023-04-01T17:20:53;97366.25;;;10.96;100.00
23899;BME280;20544;50.018;20.010;2023-04-01T17:24:14;97372.42;;;10.90;100.00
23899;BME280;20544;50.018;20.010;2023-04-01T17:27:50;97380.33;;;10.71;100.00
23899;BME280;20544;50.018;20.010;2023-04-01T17:36:51;97389.66;;;10.80;100.00
23899;BME280;20544;50.018;20.010;2023-04-01T17:40:35;97385.03;;;10.69;100.00
23899;BME280;20544;50.018;20.010;2023-04-01T17:43:58;97384.48;;;10.60;100.00
23899;BME280;20544;50.018;20.010;2023-04-01T17:50:46;97399.84;;;10.51;100.00
23899;BME280;20544;50.018;20.010;2023-04-01T17:54:15;97396.65;;;10.43;100.00
23899;BME280;20544;50.018;20.010;2023-04-01T17:57:42;97396.65;;;10.43;100.00
23899;BME280;20544;50.018;20.010;2023-04-01T18:01:13;97396.48;;;10.38;100.00
23899;BME280;20544;50.018;20.010;2023-04-01T18:06:21;97408.11;;;10.36;100.00
23899;BME280;20544;50.018;20.010;2023-04-01T18:09:52;97419.09;;;10.40;100.00
23899;BME280;20544;50.018;20.010;2023-04-01T18:20:39;97422.13;;;10.44;100.00
23899;BME280;20544;50.018;20.010;2023-04-01T18:24:02;97425.97;;;10.48;100.00
23899;BME280;20544;50.018;20.010;2023-04-01T18:27:28;97424.31;;;10.54;100.00
23899;BME280;20544;50.018;20.010;2023-04-01T18:30:51;97431.49;;;10.46;100.00
23899;BME280;20544;50.018;20.010;2023-04-01T18:37:30;97443.77;;;10.41;100.00
23899;BME280;20544;50.018;20.010;2023-04-01T18:40:52;97444.42;;;10.29;100.00
23899;BME280;20544;50.018;20.010;2023-04-01T18:44:34;97447.09;;;10.23;100.00
23899;BME280;20544;50.018;20.010;2023-04-01T18:48:03;97445.33;;;10.10;100.00
23899;BME280;20544;50.018;20.010;2023-04-01T18:51:26;97444.72;;;10.08;100.00
23899;BME280;20544;50.018;20.010;2023-04-01T18:58:58;97446.78;;;10.06;100.00
23899;BME280;20544;50.018;20.010;2023-04-01T19:02:27;97450.84;;;10.08;100.00
23899;BME280;20544;50.018;20.010;2023-04-01T19:05:49;97451.88;;;10.00;100.00
23899;BME280;20544;50.018;20.010;2023-04-01T19:09:27;97462.69;;;9.99;100.00
23899;BME280;20544;50.018;20.010;2023-04-01T19:12:51;97464.10;;;10.01;100.00
23899;BME280;20544;50.018;20.010;2023-04-01T19:16:31;97465.50;;;10.11;100.00
23899;BME280;20544;50.018;20.010;2023-04-01T19:19:57;97474.65;;;10.15;100.00
23899;BME280;20544;50.018;20.010;2023-04-01T19:23:38;97479.95;;;10.15;100.00
23899;BME280;20544;50.018;20.010;2023-04-01T19:27:06;97480.00;;;10.01;100.00
23899;BME280;20544;50.018;20.010;2023-04-01T19:30:38;97489.75;;;10.08;100.00
23899;BME280;20544;50.018;20.010;2023-04-01T19:34:06;97492.84;;;9.98;100.00
23899;BME280;20544;50.018;20.010;2023-04-01T19:37:34;97499.41;;;9.88;100.00
23899;BME280;20544;50.018;20.010;2023-04-01T19:40:57;97501.67;;;9.71;100.00
23899;BME280;20544;50.018;20.010;2023-04-01T19:44:25;97506.39;;;9.69;100.00
23899;BME280;20544;50.018;20.010;2023-04-01T19:51:05;97513.31;;;9.64;100.00
23899;BME280;20544;50.018;20.010;2023-04-01T19:54:33;97514.30;;;9.76;100.00
23899;BME280;20544;50.018;20.010;2023-04-01T19:57:55;97520.40;;;9.77;100.00
23899;BME280;20544;50.018;20.010;2023-04-01T20:01:17;97521.02;;;9.79;100.00
23899;BME280;20544;50.018;20.010;2023-04-01T20:07:57;97522.03;;;9.78;100.00
23899;BME280;20544;50.018;20.010;2023-04-01T20:11:25;97531.20;;;9.75;100.00
23899;BME280;20544;50.018;20.010;2023-04-01T20:14:51;97534.46;;;9.70;100.00
23899;BME280;20544;50.018;20.010;2023-04-01T20:18:17;97541.41;;;9.65;100.00
23899;BME280;20544;50.018;20.010;2023-04-01T20:21:42;97538.77;;;9.65;100.00
23899;BME280;20544;50.018;20.010;2023-04-01T20:25:05;97541.41;;;9.58;100.00
23899;BME280;20544;50.018;20.010;2023-04-01T20:28:28;97548.34;;;9.66;100.00
23899;BME280;20544;50.018;20.010;2023-04-01T20:37:23;97551.98;;;9.71;100.00
23899;BME280;20544;50.018;20.010;2023-04-01T20:40:47;97550.56;;;9.69;100.00
23899;BME280;20544;50.018;20.010;2023-04-01T20:44:11;97545.69;;;9.66;100.00
23899;BME280;20544;50.018;20.010;2023-04-01T20:47:39;97558.72;;;9.67;100.00
23899;BME280;20544;50.018;20.010;2023-04-01T20:50:58;97555.05;;;9.62;100.00
23899;BME280;20544;50.018;20.010;2023-04-01T20:54:33;97555.86;;;9.69;100.00
23899;BME280;20544;50.018;20.010;2023-04-01T20:58:04;97554.86;;;9.63;100.00
23899;BME280;20544;50.018;20.010;2023-04-01T21:01:32;97559.33;;;9.63;100.00
23899;BME280;20544;50.018;20.010;2023-04-01T21:05:19;97562.80;;;9.50;100.00
23899;BME280;20544;50.018;20.010;2023-04-01T21:08:56;97554.25;;;9.48;100.00
23899;BME280;20544;50.018;20.010;2023-04-01T21:12:24;97563.83;;;9.42;100.00
23899;BME280;20544;50.018;20.010;2023-04-01T21:15:56;97570.13;;;9.34;100.00
23899;BME280;20544;50.018;20.010;2023-04-01T21:19:27;97572.97;;;9.33;100.00
23899;BME280;20544;50.018;20.010;2023-04-01T21:23:02;97579.91;;;9.47;100.00
23899;BME280;20544;50.018;20.010;2023-04-01T21:26:40;97588.45;;;9.43;100.00
23899;BME280;20544;50.018;20.010;2023-04-01T21:30:07;97595.58;;;9.49;100.00
23899;BME280;20544;50.018;20.010;2023-04-01T21:33:48;97591.51;;;9.46;100.00
23899;BME280;20544;50.018;20.010;2023-04-01T21:37:47;97597.42;;;9.48;100.00
23899;BME280;20544;50.018;20.010;2023-04-01T21:41:23;97590.48;;;9.54;100.00
23899;BME280;20544;50.018;20.010;2023-04-01T21:45:03;97594.16;;;9.60;100.00
23899;BME280;20544;50.018;20.010;2023-04-01T21:52:40;97604.14;;;9.51;100.00
23899;BME280;20544;50.018;20.010;2023-04-01T21:56:26;97596.19;;;9.58;100.00